Time;durP1;ratioP1;P1;durP2;ratioP2;P2;SDS_P1;SDS_P2;PMS_P1;PMS_P2;Temp;Humidity;BMP_temperature;BMP_pressure;BME280_temperature;BME280_humidity;BME280_pressure;Samples;Min_cycle;Max_cycle;Signal;HPM_P1;HPM_P2
2024/03/10 00:01:23;;;;;;;3.65;1.80;;;;;;;;;;6151458;23;20164;-87
2024/03/10 00:04:28;;;;;;;2.60;1.52;;;;;;;;;;6150510;23;20319;-89
2024/03/10 00:07:33;;;;;;;3.42;1.70;;;;;;;;;;6152467;23;20169;-89
2024/03/10 00:10:40;;;;;;;2.70;1.50;;;;;;;;;;6150279;23;20169;-90
2024/03/10 00:13:45;;;;;;;27.42;7.47;;;;;;;;;;6150939;23;20164;-88
2024/03/10 00:16:52;;;;;;;16.02;5.03;;;;;;;;;;6152035;23;20172;-89
2024/03/10 00:19:57;;;;;;;10.90;3.97;;;;;;;;;;6151492;23;20177;-89
2024/03/10 00:23:03;;;;;;;8.57;3.45;;;;;;;;;;6156841;23;20196;-87
2024/03/10 00:26:09;;;;;;;26.43;7.33;;;;;;;;;;6154195;23;20559;-88
2024/03/10 00:29:14;;;;;;;24.30;6.97;;;;;;;;;;6150819;23;20172;-90
2024/03/10 00:32:21;;;;;;;5.65;2.63;;;;;;;;;;6152065;23;20168;-87
2024/03/10 00:35:25;;;;;;;3.80;2.17;;;;;;;;;;6150441;23;20216;-88
2024/03/10 00:38:31;;;;;;;5.80;2.20;;;;;;;;;;6151645;23;20164;-88
2024/03/10 00:41:36;;;;;;;6.47;2.47;;;;;;;;;;6151177;23;20768;-87
2024/03/10 00:44:41;;;;;;;5.00;2.28;;;;;;;;;;6150517;23;20271;-88
2024/03/10 00:47:48;;;;;;;4.38;2.08;;;;;;;;;;6159027;23;20528;-88
2024/03/10 00:50:53;;;;;;;5.80;2.57;;;;;;;;;;6150627;23;20148;-89
2024/03/10 00:53:58;;;;;;;4.95;2.50;;;;;;;;;;6153333;23;20230;-89
2024/03/10 00:57:04;;;;;;;6.05;2.55;;;;;;;;;;6154569;23;20159;-89
2024/03/10 01:00:10;;;;;;;4.97;1.83;;;;;;;;;;6152476;23;20169;-89
2024/03/10 01:03:17;;;;;;;4.57;2.33;;;;;;;;;;6150363;23;20619;-89
2024/03/10 01:06:23;;;;;;;6.50;2.60;;;;;;;;;;6151122;23;20234;-89
2024/03/10 01:09:29;;;;;;;6.73;2.40;;;;;;;;;;6149851;23;20264;-88
2024/03/10 01:12:34;;;;;;;5.80;2.40;;;;;;;;;;6151447;23;20217;-88
2024/03/10 01:15:40;;;;;;;4.17;1.90;;;;;;;;;;6153637;23;20236;-87
2024/03/10 01:18:47;;;;;;;3.47;2.00;;;;;;;;;;6152990;23;20180;-87
2024/03/10 01:21:52;;;;;;;4.73;2.30;;;;;;;;;;6151218;23;20181;-88
2024/03/10 01:24:57;;;;;;;8.60;3.70;;;;;;;;;;6151053;23;20247;-87
2024/03/10 01:28:02;;;;;;;7.90;3.50;;;;;;;;;;6151029;23;20176;-90
2024/03/10 01:31:09;;;;;;;8.40;3.33;;;;;;;;;;6150749;23;20507;-88
2024/03/10 01:34:19;;;;;;;6.40;2.20;;;;;;;;;;6149537;23;20308;-89
2024/03/10 01:37:24;;;;;;;3.93;2.10;;;;;;;;;;6149557;23;20169;-88
2024/03/10 01:40:29;;;;;;;4.23;1.80;;;;;;;;;;6149815;23;20175;-89
2024/03/10 01:43:34;;;;;;;3.60;1.77;;;;;;;;;;6151189;23;20240;-90
2024/03/10 01:46:39;;;;;;;4.57;2.20;;;;;;;;;;6150436;23;20169;-87
2024/03/10 01:49:46;;;;;;;3.00;1.60;;;;;;;;;;6150022;23;20208;-89
2024/03/10 01:52:51;;;;;;;6.50;2.60;;;;;;;;;;6148026;23;20624;-89
2024/03/10 01:55:56;;;;;;;7.13;3.10;;;;;;;;;;6148898;23;20153;-90
2024/03/10 01:59:02;;;;;;;8.95;3.13;;;;;;;;;;6150346;23;20168;-89
2024/03/10 02:02:07;;;;;;;5.30;2.20;;;;;;;;;;6150136;23;20288;-88
2024/03/10 02:05:15;;;;;;;3.70;2.03;;;;;;;;;;6150049;23;20171;-90
2024/03/10 02:08:20;;;;;;;9.33;3.10;;;;;;;;;;6149016;23;20192;-88
2024/03/10 02:11:26;;;;;;;14.17;4.20;;;;;;;;;;6149471;23;20161;-88
2024/03/10 02:14:31;;;;;;;8.37;3.60;;;;;;;;;;6152071;23;20172;-90
2024/03/10 02:17:37;;;;;;;8.53;3.20;;;;;;;;;;6151010;23;20168;-89
2024/03/10 02:20:48;;;;;;;7.27;2.93;;;;;;;;;;6152847;23;20164;-88
2024/03/10 02:23:56;;;;;;;6.17;2.33;;;;;;;;;;6151412;23;20193;-90
2024/03/10 02:27:03;;;;;;;3.63;2.10;;;;;;;;;;6151383;23;20164;-90
2024/03/10 02:30:18;;;;;;;6.60;2.70;;;;;;;;;;6168255;23;20288;-89
2024/03/10 02:47:15;;;;;;;6.63;2.57;;;;;;;;;;6152315;23;20293;-90
2024/03/10 02:50:21;;;;;;;6.33;2.53;;;;;;;;;;6150829;23;20188;-89
2024/03/10 02:53:27;;;;;;;4.47;2.43;;;;;;;;;;6152033;23;20235;-88
2024/03/10 02:56:32;;;;;;;34.97;9.83;;;;;;;;;;6149881;23;20212;-87
2024/03/10 02:59:39;;;;;;;12.37;3.87;;;;;;;;;;6151515;23;20152;-88
2024/03/10 03:02:45;;;;;;;10.53;3.60;;;;;;;;;;6151270;23;20172;-88
2024/03/10 03:05:51;;;;;;;5.37;2.50;;;;;;;;;;6149077;23;20248;-89
2024/03/10 03:08:56;;;;;;;5.33;2.20;;;;;;;;;;6165364;23;20242;-88
2024/03/10 03:12:03;;;;;;;6.17;2.40;;;;;;;;;;6146842;23;20263;-89
2024/03/10 03:15:10;;;;;;;6.73;2.43;;;;;;;;;;6149310;23;20148;-90
2024/03/10 03:18:15;;;;;;;4.27;2.27;;;;;;;;;;6149379;23;20243;-90
2024/03/10 03:21:20;;;;;;;15.30;4.27;;;;;;;;;;6149466;23;20185;-89
2024/03/10 03:24:25;;;;;;;14.30;3.53;;;;;;;;;;6149358;23;20196;-89
2024/03/10 03:27:31;;;;;;;11.77;2.97;;;;;;;;;;6150288;23;20706;-88
2024/03/10 03:30:42;;;;;;;5.67;2.53;;;;;;;;;;6151163;23;20611;-89
2024/03/10 03:33:47;;;;;;;6.20;2.30;;;;;;;;;;6151121;23;20176;-90
2024/03/10 03:36:52;;;;;;;9.63;3.30;;;;;;;;;;6166383;23;20164;-89
2024/03/10 03:39:58;;;;;;;6.43;2.50;;;;;;;;;;6149616;23;20192;-87
2024/03/10 03:43:04;;;;;;;4.17;1.83;;;;;;;;;;6168437;23;20200;-89
2024/03/10 03:46:12;;;;;;;3.93;1.90;;;;;;;;;;6149112;23;20304;-90
2024/03/10 03:49:18;;;;;;;5.47;2.10;;;;;;;;;;6148930;23;20597;-89
2024/03/10 03:52:23;;;;;;;6.30;2.33;;;;;;;;;;6148099;23;20224;-89
2024/03/10 03:55:28;;;;;;;5.63;2.33;;;;;;;;;;6147809;23;20171;-88
2024/03/10 03:58:34;;;;;;;4.43;1.77;;;;;;;;;;6150105;23;20240;-89
2024/03/10 04:01:42;;;;;;;5.27;2.20;;;;;;;;;;6150562;23;20167;-89
2024/03/10 04:04:48;;;;;;;3.03;1.87;;;;;;;;;;6150556;23;20196;-88
2024/03/10 04:07:53;;;;;;;5.67;2.03;;;;;;;;;;6149459;23;20239;-88
2024/03/10 04:10:59;;;;;;;4.43;1.90;;;;;;;;;;6148920;23;20217;-89
2024/03/10 04:14:06;;;;;;;6.50;2.00;;;;;;;;;;6148459;23;20228;-88
2024/03/10 04:17:12;;;;;;;3.90;1.87;;;;;;;;;;6147813;23;20172;-89
2024/03/10 04:20:17;;;;;;;3.53;2.10;;;;;;;;;;6148509;23;20197;-90
2024/03/10 04:23:22;;;;;;;4.73;1.90;;;;;;;;;;6165454;23;20240;-87
2024/03/10 04:26:27;;;;;;;4.43;2.00;;;;;;;;;;6148596;23;20152;-88
2024/03/10 04:29:33;;;;;;;3.70;1.93;;;;;;;;;;6148080;23;20188;-88
2024/03/10 04:32:40;;;;;;;3.97;1.67;;;;;;;;;;6148547;23;20176;-87
2024/03/10 04:35:44;;;;;;;2.90;1.93;;;;;;;;;;6150125;23;20247;-89
2024/03/10 04:38:49;;;;;;;7.43;1.83;;;;;;;;;;6149040;23;20284;-88
2024/03/10 04:41:54;;;;;;;3.20;1.80;;;;;;;;;;6147870;23;20204;-88
2024/03/10 04:44:59;;;;;;;3.80;1.80;;;;;;;;;;6147060;23;20196;-90
2024/03/10 04:48:08;;;;;;;3.07;1.80;;;;;;;;;;6147470;23;20210;-89
2024/03/10 04:51:14;;;;;;;3.57;1.80;;;;;;;;;;6148570;23;20160;-89
2024/03/10 04:54:19;;;;;;;4.33;2.00;;;;;;;;;;6149204;23;20212;-89
2024/03/10 04:57:24;;;;;;;4.30;1.90;;;;;;;;;;6149634;23;20224;-88
2024/03/10 05:00:30;;;;;;;4.20;1.73;;;;;;;;;;6151126;23;20152;-89
2024/03/10 05:03:37;;;;;;;4.60;1.80;;;;;;;;;;6150484;23;20253;-88
2024/03/10 05:06:42;;;;;;;3.60;1.70;;;;;;;;;;6151836;23;20164;-90
2024/03/10 05:09:47;;;;;;;2.50;1.50;;;;;;;;;;6152041;23;20620;-89
2024/03/10 05:12:52;;;;;;;3.80;2.07;;;;;;;;;;6150902;23;20355;-88
2024/03/10 05:15:57;;;;;;;3.30;1.93;;;;;;;;;;6150420;23;20168;-89
2024/03/10 05:19:04;;;;;;;4.77;2.17;;;;;;;;;;6150000;23;20247;-89
2024/03/10 05:22:10;;;;;;;6.87;2.70;;;;;;;;;;6149676;23;20165;-89
2024/03/10 05:25:15;;;;;;;4.27;2.40;;;;;;;;;;6149728;23;20175;-89
2024/03/10 05:28:20;;;;;;;5.60;2.47;;;;;;;;;;6149383;23;20230;-87
2024/03/10 05:31:27;;;;;;;6.03;2.67;;;;;;;;;;6148672;23;20293;-88
2024/03/10 05:34:35;;;;;;;4.87;2.37;;;;;;;;;;6149100;23;20217;-88
2024/03/10 05:37:41;;;;;;;3.80;2.00;;;;;;;;;;6147392;23;20172;-88
2024/03/10 05:40:46;;;;;;;4.00;2.40;;;;;;;;;;6149806;23;20188;-89
2024/03/10 05:43:51;;;;;;;4.00;2.10;;;;;;;;;;6149939;23;20497;-88
2024/03/10 05:46:56;;;;;;;4.83;2.33;;;;;;;;;;6148348;23;20251;-88
2024/03/10 05:50:03;;;;;;;4.30;2.10;;;;;;;;;;6148602;23;20233;-88
2024/03/10 05:53:08;;;;;;;4.40;2.50;;;;;;;;;;6149418;23;20169;-88
2024/03/10 05:56:13;;;;;;;5.83;2.30;;;;;;;;;;6151504;23;20157;-89
2024/03/10 05:59:18;;;;;;;3.87;1.90;;;;;;;;;;6149404;23;20168;-90
2024/03/10 06:02:23;;;;;;;4.47;1.87;;;;;;;;;;6148272;23;20561;-89
2024/03/10 06:05:30;;;;;;;2.87;1.63;;;;;;;;;;6149192;23;20782;-88
2024/03/10 06:08:36;;;;;;;5.10;1.90;;;;;;;;;;6167267;23;20173;-87
2024/03/10 06:11:41;;;;;;;4.50;1.70;;;;;;;;;;6150883;23;20161;-87
2024/03/10 06:14:46;;;;;;;5.00;2.00;;;;;;;;;;6151948;23;20168;-88
2024/03/10 06:18:04;;;;;;;4.13;2.10;;;;;;;;;;6150255;23;20212;-89
2024/03/10 06:28:07;;;;;;;4.53;2.60;;;;;;;;;;6150504;23;20176;-86
2024/03/10 06:31:13;;;;;;;5.60;2.70;;;;;;;;;;6149484;23;20165;-88
2024/03/10 06:34:18;;;;;;;5.83;2.70;;;;;;;;;;6149073;23;20156;-88
2024/03/10 06:37:24;;;;;;;10.25;3.47;;;;;;;;;;6148443;23;20172;-88
2024/03/10 06:40:29;;;;;;;7.23;2.60;;;;;;;;;;6150984;23;20295;-88
2024/03/10 06:43:34;;;;;;;5.10;2.73;;;;;;;;;;6150843;23;20168;-88
2024/03/10 06:46:40;;;;;;;9.50;4.67;;;;;;;;;;6148949;23;20211;-87
2024/03/10 06:49:47;;;;;;;9.77;4.53;;;;;;;;;;6150613;23;20192;-89
2024/03/10 06:52:53;;;;;;;5.67;2.27;;;;;;;;;;6149969;23;20172;-89
2024/03/10 06:56:00;;;;;;;4.30;2.50;;;;;;;;;;6151475;23;20177;-88
2024/03/10 06:59:05;;;;;;;9.47;2.70;;;;;;;;;;6150559;23;20169;-90
2024/03/10 07:02:12;;;;;;;4.77;2.40;;;;;;;;;;6150811;23;20152;-89
2024/03/10 07:05:18;;;;;;;5.28;2.72;;;;;;;;;;6150483;23;20268;-89
2024/03/10 07:08:24;;;;;;;7.15;2.78;;;;;;;;;;6148774;23;20165;-90
2024/03/10 07:11:30;;;;;;;6.03;2.47;;;;;;;;;;6149507;23;20173;-88
2024/03/10 07:14:35;;;;;;;4.88;2.90;;;;;;;;;;6149372;23;20173;-90
2024/03/10 07:17:42;;;;;;;7.10;2.95;;;;;;;;;;6150626;23;20156;-89
2024/03/10 07:20:47;;;;;;;5.80;2.83;;;;;;;;;;6151716;23;20173;-88
2024/03/10 07:23:54;;;;;;;5.65;2.90;;;;;;;;;;6150871;23;20172;-87
2024/03/10 07:26:59;;;;;;;4.35;2.30;;;;;;;;;;6149889;23;20161;-90
2024/03/10 07:30:05;;;;;;;3.53;2.08;;;;;;;;;;6149005;23;20165;-87
2024/03/10 07:33:10;;;;;;;4.95;2.67;;;;;;;;;;6150468;23;20265;-91
2024/03/10 07:36:15;;;;;;;7.70;3.28;;;;;;;;;;6150025;23;20181;-89
2024/03/10 07:39:22;;;;;;;6.13;2.47;;;;;;;;;;6149746;23;20174;-89
2024/03/10 07:42:31;;;;;;;6.25;2.28;;;;;;;;;;6149520;23;20176;-88
2024/03/10 07:45:36;;;;;;;3.40;1.80;;;;;;;;;;6149704;23;20195;-89
2024/03/10 07:48:41;;;;;;;3.30;1.85;;;;;;;;;;6152930;23;20168;-89
2024/03/10 07:51:46;;;;;;;4.72;2.75;;;;;;;;;;6151271;23;20173;-90
2024/03/10 07:54:53;;;;;;;3.97;2.20;;;;;;;;;;6151981;23;20169;-89
2024/03/10 07:57:59;;;;;;;6.50;2.60;;;;;;;;;;6149675;23;20168;-89
2024/03/10 08:01:04;;;;;;;4.85;2.45;;;;;;;;;;6148951;23;20188;-89
2024/03/10 08:04:10;;;;;;;4.93;2.33;;;;;;;;;;6149639;23;20184;-89
2024/03/10 08:07:16;;;;;;;4.45;2.20;;;;;;;;;;6149022;23;20172;-90
2024/03/10 08:10:23;;;;;;;6.22;2.40;;;;;;;;;;6149663;23;20173;-90
2024/03/10 08:13:29;;;;;;;4.30;2.40;;;;;;;;;;6149404;23;20169;-89
2024/03/10 08:16:34;;;;;;;8.90;3.45;;;;;;;;;;6147616;23;20177;-88
2024/03/10 08:19:42;;;;;;;6.28;2.72;;;;;;;;;;6148266;23;20201;-90
2024/03/10 08:22:49;;;;;;;6.00;2.22;;;;;;;;;;6147545;23;20168;-88
2024/03/10 08:25:55;;;;;;;5.63;2.70;;;;;;;;;;6147624;23;20176;-89
2024/03/10 08:29:02;;;;;;;7.10;2.70;;;;;;;;;;6148906;23;20172;-89
2024/03/10 08:32:09;;;;;;;7.85;3.03;;;;;;;;;;6162586;23;20194;-89
2024/03/10 08:35:17;;;;;;;6.50;3.63;;;;;;;;;;6152770;23;20195;-89
2024/03/10 08:38:26;;;;;;;8.20;4.72;;;;;;;;;;6150171;23;20216;-89
2024/03/10 08:41:32;;;;;;;27.42;9.23;;;;;;;;;;6147947;23;20191;-89
2024/03/10 08:44:38;;;;;;;25.73;11.20;;;;;;;;;;6148538;23;20164;-88
2024/03/10 08:47:45;;;;;;;11.38;5.28;;;;;;;;;;6150990;23;20165;-89
2024/03/10 08:51:01;;;;;;;9.77;4.20;;;;;;;;;;6152817;23;20172;-88
2024/03/10 08:54:07;;;;;;;6.15;2.53;;;;;;;;;;6151419;23;20168;-91
2024/03/10 08:57:16;;;;;;;6.47;2.80;;;;;;;;;;6148968;23;20286;-89
2024/03/10 09:00:21;;;;;;;6.22;2.78;;;;;;;;;;6149848;23;20164;-89
2024/03/10 09:03:26;;;;;;;6.57;2.90;;;;;;;;;;6151240;23;20635;-89
2024/03/10 09:06:32;;;;;;;6.55;2.83;;;;;;;;;;6150787;23;20188;-89
2024/03/10 09:09:42;;;;;;;3.90;2.13;;;;;;;;;;6149276;23;20184;-90
2024/03/10 09:12:49;;;;;;;7.07;1.83;;;;;;;;;;6151949;23;20161;-90
2024/03/10 09:15:54;;;;;;;4.55;1.63;;;;;;;;;;6153359;23;20176;-88
2024/03/10 09:19:05;;;;;;;3.67;1.63;;;;;;;;;;6154518;23;20187;-89
2024/03/10 09:22:10;;;;;;;2.92;1.60;;;;;;;;;;6169677;23;20341;-88
2024/03/10 09:25:21;;;;;;;3.85;1.65;;;;;;;;;;6151609;23;20184;-88
2024/03/10 09:28:28;;;;;;;2.80;1.52;;;;;;;;;;6154013;23;20252;-88
2024/03/10 09:31:43;;;;;;;3.92;1.50;;;;;;;;;;6151913;23;20164;-88
2024/03/10 09:34:48;;;;;;;2.15;1.38;;;;;;;;;;6152112;23;20254;-88
2024/03/10 09:37:54;;;;;;;3.10;1.60;;;;;;;;;;6150417;23;20213;-88
2024/03/10 09:41:01;;;;;;;3.58;1.58;;;;;;;;;;6151850;23;20304;-89
2024/03/10 09:44:07;;;;;;;2.25;1.30;;;;;;;;;;6151852;23;20204;-88
2024/03/10 09:47:13;;;;;;;3.42;1.50;;;;;;;;;;6154668;23;20334;-89
2024/03/10 09:50:22;;;;;;;3.15;1.40;;;;;;;;;;6156673;23;20172;-92
2024/03/10 09:53:36;;;;;;;5.22;2.53;;;;;;;;;;6155792;23;20232;-88
2024/03/10 09:56:41;;;;;;;4.57;1.80;;;;;;;;;;6153806;23;20168;-89
2024/03/10 09:59:50;;;;;;;1.88;1.30;;;;;;;;;;6157987;23;20168;-91
2024/03/10 10:02:58;;;;;;;2.33;1.15;;;;;;;;;;6155480;23;20169;-88
2024/03/10 10:06:08;;;;;;;2.30;1.08;;;;;;;;;;6158269;23;20180;-90
2024/03/10 10:09:17;;;;;;;1.95;1.25;;;;;;;;;;6155862;23;20173;-91
2024/03/10 10:12:22;;;;;;;2.38;1.00;;;;;;;;;;6153316;23;20169;-89
2024/03/10 10:15:33;;;;;;;2.03;1.05;;;;;;;;;;6152946;23;20259;-91
2024/03/10 10:18:39;;;;;;;1.70;1.20;;;;;;;;;;6153722;23;20233;-90
2024/03/10 10:21:46;;;;;;;1.38;1.00;;;;;;;;;;6153052;23;20168;-92
2024/03/10 10:25:27;;;;;;;1.73;1.15;;;;;;;;;;6169970;23;20216;-90
2024/03/10 10:28:34;;;;;;;6.00;1.20;;;;;;;;;;6154401;23;20176;-90
2024/03/10 10:31:56;;;;;;;5.68;1.20;;;;;;;;;;6155408;23;20161;-87
2024/03/10 10:35:03;;;;;;;1.30;0.80;;;;;;;;;;6157352;23;20611;-87
2024/03/10 10:38:14;;;;;;;2.00;0.80;;;;;;;;;;6157030;23;20172;-88
2024/03/10 10:41:21;;;;;;;3.05;0.90;;;;;;;;;;6153927;23;20307;-90
2024/03/10 10:44:27;;;;;;;3.10;1.00;;;;;;;;;;6154018;23;20206;-90
2024/03/10 10:47:36;;;;;;;1.55;0.75;;;;;;;;;;6154625;23;20177;-89
2024/03/10 10:50:43;;;;;;;1.77;1.05;;;;;;;;;;6153568;23;20257;-90
2024/03/10 10:53:49;;;;;;;1.48;1.00;;;;;;;;;;6153062;23;20167;-88
2024/03/10 10:56:55;;;;;;;2.58;0.98;;;;;;;;;;6152734;23;20173;-90
2024/03/10 11:00:22;;;;;;;1.70;0.90;;;;;;;;;;6155538;23;20169;-87
2024/03/10 11:03:40;;;;;;;2.95;0.95;;;;;;;;;;6159636;23;20197;-90
2024/03/10 11:06:45;;;;;;;2.38;0.98;;;;;;;;;;6160050;23;20176;-90
2024/03/10 11:09:50;;;;;;;1.17;0.80;;;;;;;;;;6159679;23;20186;-91
2024/03/10 11:13:08;;;;;;;1.30;0.80;;;;;;;;;;6142915;23;20152;-91
2024/03/10 11:16:14;;;;;;;1.90;0.90;;;;;;;;;;6159553;23;20507;-90
2024/03/10 11:19:23;;;;;;;1.98;0.90;;;;;;;;;;6157605;23;20221;-90
2024/03/10 11:22:30;;;;;;;1.45;0.85;;;;;;;;;;6152855;23;20172;-88
2024/03/10 11:25:36;;;;;;;0.70;0.60;;;;;;;;;;6154075;23;20489;-88
2024/03/10 11:28:49;;;;;;;2.80;0.80;;;;;;;;;;6153946;23;20168;-90
2024/03/10 11:31:57;;;;;;;2.30;0.90;;;;;;;;;;6154666;23;20181;-89
2024/03/10 11:35:08;;;;;;;1.48;0.88;;;;;;;;;;6153260;23;20169;-89
2024/03/10 11:38:15;;;;;;;1.10;0.70;;;;;;;;;;6152448;23;20176;-90
2024/03/10 11:41:20;;;;;;;3.47;0.93;;;;;;;;;;6153712;23;20220;-92
2024/03/10 11:44:25;;;;;;;1.50;0.95;;;;;;;;;;6153320;23;20212;-91
2024/03/10 11:47:32;;;;;;;1.30;0.90;;;;;;;;;;6157536;23;20192;-90
2024/03/10 11:50:40;;;;;;;0.95;0.77;;;;;;;;;;6156575;23;20244;-89
2024/03/10 11:53:46;;;;;;;1.83;1.02;;;;;;;;;;6157026;23;20172;-91
2024/03/10 11:56:52;;;;;;;1.45;0.90;;;;;;;;;;6155079;23;20498;-91
2024/03/10 11:59:58;;;;;;;2.00;0.98;;;;;;;;;;6155410;23;20171;-89
2024/03/10 12:03:08;;;;;;;1.60;0.93;;;;;;;;;;6152956;23;20165;-90
2024/03/10 12:06:16;;;;;;;2.35;1.35;;;;;;;;;;6154308;23;20200;-89
2024/03/10 12:09:23;;;;;;;2.50;1.00;;;;;;;;;;6157459;23;20168;-89
2024/03/10 12:12:31;;;;;;;1.88;0.95;;;;;;;;;;6155509;23;20509;-90
2024/03/10 12:15:37;;;;;;;2.70;0.98;;;;;;;;;;6155350;23;20172;-89
2024/03/10 12:18:43;;;;;;;1.67;0.80;;;;;;;;;;6154813;23;20165;-90
2024/03/10 12:21:51;;;;;;;1.42;0.90;;;;;;;;;;6155244;23;20172;-91
2024/03/10 12:24:58;;;;;;;1.63;0.95;;;;;;;;;;6153757;23;20216;-91
2024/03/10 12:28:04;;;;;;;1.65;0.90;;;;;;;;;;6153113;23;20175;-91
2024/03/10 12:31:13;;;;;;;2.25;0.93;;;;;;;;;;6149928;23;20660;-89
2024/03/10 12:34:19;;;;;;;4.05;1.50;;;;;;;;;;6155477;23;20169;-90
2024/03/10 12:37:25;;;;;;;2.90;1.00;;;;;;;;;;6151317;23;20173;-91
2024/03/10 12:40:33;;;;;;;1.75;1.10;;;;;;;;;;6152163;23;20188;-90
2024/03/10 12:43:40;;;;;;;1.80;1.15;;;;;;;;;;6154001;23;20172;-92
2024/03/10 12:46:46;;;;;;;2.10;1.20;;;;;;;;;;6153413;23;20200;-89
2024/03/10 12:49:51;;;;;;;3.95;1.13;;;;;;;;;;6153627;23;20632;-90
2024/03/10 12:52:58;;;;;;;2.33;1.27;;;;;;;;;;6152163;23;20620;-91
2024/03/10 12:56:03;;;;;;;2.58;1.10;;;;;;;;;;6150725;23;20239;-92
2024/03/10 12:59:08;;;;;;;1.23;1.00;;;;;;;;;;6153472;23;20255;-92
2024/03/10 13:02:14;;;;;;;3.70;1.50;;;;;;;;;;6153408;23;20168;-91
2024/03/10 13:05:20;;;;;;;3.70;0.90;;;;;;;;;;6143190;23;20208;-91
2024/03/10 13:08:26;;;;;;;2.03;1.10;;;;;;;;;;6151149;23;20238;-91
2024/03/10 13:11:32;;;;;;;2.13;1.10;;;;;;;;;;6149510;23;20164;-92
2024/03/10 13:14:37;;;;;;;1.60;1.02;;;;;;;;;;6153555;23;20209;-90
2024/03/10 13:17:43;;;;;;;1.30;0.80;;;;;;;;;;6153331;23;20152;-92
2024/03/10 13:20:48;;;;;;;3.00;0.90;;;;;;;;;;6151532;23;20208;-91
2024/03/10 13:23:54;;;;;;;2.55;1.00;;;;;;;;;;6151972;23;20238;-91
2024/03/10 13:26:59;;;;;;;2.08;0.80;;;;;;;;;;6151959;23;20200;-91
2024/03/10 13:30:05;;;;;;;1.35;0.80;;;;;;;;;;6148966;23;20152;-89
2024/03/10 13:33:11;;;;;;;2.13;1.05;;;;;;;;;;6150755;23;20168;-90
2024/03/10 13:36:16;;;;;;;2.65;0.75;;;;;;;;;;6151712;23;20220;-90
2024/03/10 13:43:13;;;;;;;5.32;2.15;;;;;;;;;;6169856;23;20183;-91
2024/03/10 13:46:19;;;;;;;2.53;1.33;;;;;;;;;;6149135;23;20212;-91
2024/03/10 13:49:24;;;;;;;10.75;4.68;;;;;;;;;;6151097;23;20962;-91
2024/03/10 13:52:31;;;;;;;4.40;1.38;;;;;;;;;;6151391;23;20165;-91
2024/03/10 13:55:39;;;;;;;1.35;0.90;;;;;;;;;;6149073;23;20244;-91
2024/03/10 13:58:46;;;;;;;1.92;1.10;;;;;;;;;;6153365;23;20259;-90
2024/03/10 14:01:54;;;;;;;1.42;0.82;;;;;;;;;;6153850;23;20188;-90
2024/03/10 14:05:01;;;;;;;2.25;0.80;;;;;;;;;;6152458;23;20168;-90
2024/03/10 14:08:07;;;;;;;1.20;0.60;;;;;;;;;;6152793;23;20192;-91
2024/03/10 14:11:13;;;;;;;28.92;11.20;;;;;;;;;;6152948;23;20173;-90
2024/03/10 14:14:19;;;;;;;2.38;1.98;;;;;;;;;;6151732;23;20167;-90
2024/03/10 14:17:27;;;;;;;4.93;0.90;;;;;;;;;;6153437;23;20188;-90
2024/03/10 14:20:33;;;;;;;1.17;0.70;;;;;;;;;;6153391;23;20169;-90
2024/03/10 14:23:38;;;;;;;0.80;0.68;;;;;;;;;;6153095;23;20613;-91
2024/03/10 14:26:47;;;;;;;1.40;0.80;;;;;;;;;;6153659;23;20187;-91
2024/03/10 14:29:53;;;;;;;1.10;0.73;;;;;;;;;;6153795;23;20188;-90
2024/03/10 14:33:02;;;;;;;1.58;0.95;;;;;;;;;;6154449;23;20172;-90
2024/03/10 14:36:09;;;;;;;1.27;0.88;;;;;;;;;;6151263;23;20500;-90
2024/03/10 14:39:15;;;;;;;9.88;0.88;;;;;;;;;;6153287;23;20163;-90
2024/03/10 14:42:20;;;;;;;1.17;0.80;;;;;;;;;;6152797;23;20172;-90
2024/03/10 14:45:30;;;;;;;1.92;0.98;;;;;;;;;;6155103;23;20172;-91
2024/03/10 14:48:37;;;;;;;1.08;0.73;;;;;;;;;;6152705;23;20169;-90
2024/03/10 14:51:42;;;;;;;1.02;0.70;;;;;;;;;;6151655;23;20285;-90
2024/03/10 14:54:48;;;;;;;1.27;0.80;;;;;;;;;;6153010;23;20209;-89
2024/03/10 14:57:53;;;;;;;0.95;0.70;;;;;;;;;;6152252;23;20521;-91
2024/03/10 15:00:58;;;;;;;0.80;0.60;;;;;;;;;;6151298;23;20168;-92
2024/03/10 15:04:06;;;;;;;3.97;1.00;;;;;;;;;;6151824;23;20172;-89
2024/03/10 15:07:14;;;;;;;1.65;0.95;;;;;;;;;;6151213;23;20172;-90
2024/03/10 15:10:21;;;;;;;1.63;0.68;;;;;;;;;;6151612;23;20167;-90
2024/03/10 15:13:29;;;;;;;1.88;1.02;;;;;;;;;;6153411;23;20168;-90
2024/03/10 15:16:35;;;;;;;2.13;0.80;;;;;;;;;;6149891;23;20160;-90
2024/03/10 15:19:42;;;;;;;2.15;0.90;;;;;;;;;;6150933;23;20168;-91
2024/03/10 15:22:51;;;;;;;1.05;0.70;;;;;;;;;;6151540;23;20201;-90
2024/03/10 15:25:56;;;;;;;1.25;0.70;;;;;;;;;;6152455;23;20172;-91
2024/03/10 15:29:01;;;;;;;1.75;0.90;;;;;;;;;;6149773;23;20189;-90
2024/03/10 15:32:07;;;;;;;0.73;0.50;;;;;;;;;;6149006;23;20189;-88
2024/03/10 15:35:16;;;;;;;1.00;0.80;;;;;;;;;;6148802;23;20292;-90
2024/03/10 15:38:22;;;;;;;1.73;1.15;;;;;;;;;;6150110;23;20249;-89
2024/03/10 15:41:27;;;;;;;1.45;0.70;;;;;;;;;;6152628;23;20908;-90
2024/03/10 15:44:32;;;;;;;1.83;0.90;;;;;;;;;;6152683;23;20216;-89
2024/03/10 15:47:38;;;;;;;4.35;0.90;;;;;;;;;;6151883;23;20226;-89
2024/03/10 15:50:44;;;;;;;1.30;1.00;;;;;;;;;;6153322;23;20156;-89
2024/03/10 15:53:51;;;;;;;1.77;1.00;;;;;;;;;;6150976;23;20236;-89
2024/03/10 15:56:56;;;;;;;2.50;0.85;;;;;;;;;;6151903;23;20620;-90
2024/03/10 16:00:02;;;;;;;1.52;0.88;;;;;;;;;;6150156;23;20164;-88
2024/03/10 16:03:21;;;;;;;2.53;1.02;;;;;;;;;;6165691;23;20171;-89
2024/03/10 16:06:28;;;;;;;1.65;0.70;;;;;;;;;;6147546;23;20610;-90
2024/03/10 16:09:34;;;;;;;1.42;0.90;;;;;;;;;;6149973;23;20172;-89
2024/03/10 16:12:39;;;;;;;1.15;0.90;;;;;;;;;;6148317;23;20171;-89
2024/03/10 16:15:45;;;;;;;0.90;0.73;;;;;;;;;;6147541;23;20280;-89
2024/03/10 16:18:51;;;;;;;2.20;0.90;;;;;;;;;;6150053;23;20196;-88
2024/03/10 16:21:58;;;;;;;1.23;0.85;;;;;;;;;;6149588;23;20173;-88
2024/03/10 16:25:03;;;;;;;2.95;1.20;;;;;;;;;;6147849;23;20624;-90
2024/03/10 16:28:08;;;;;;;4.90;1.60;;;;;;;;;;6147565;23;20168;-90
2024/03/10 16:31:13;;;;;;;4.35;1.48;;;;;;;;;;6147710;23;20192;-89
2024/03/10 16:34:20;;;;;;;7.40;2.88;;;;;;;;;;6149868;23;20208;-90
2024/03/10 16:37:28;;;;;;;3.28;1.30;;;;;;;;;;6150860;23;20192;-90
2024/03/10 16:40:34;;;;;;;4.07;1.48;;;;;;;;;;6147200;23;20456;-89
2024/03/10 16:43:39;;;;;;;2.38;1.40;;;;;;;;;;6149274;23;20168;-92
2024/03/10 16:46:44;;;;;;;3.20;1.15;;;;;;;;;;6147733;23;20171;-90
2024/03/10 16:49:49;;;;;;;6.28;2.88;;;;;;;;;;6149364;23;20160;-91
2024/03/10 16:52:56;;;;;;;14.07;6.90;;;;;;;;;;6149453;23;20501;-90
2024/03/10 16:56:02;;;;;;;10.63;4.47;;;;;;;;;;6149772;23;20164;-89
2024/03/10 16:59:07;;;;;;;15.40;7.07;;;;;;;;;;6151024;23;20239;-89
2024/03/10 17:02:13;;;;;;;18.88;8.18;;;;;;;;;;6151219;23;20624;-89
2024/03/10 17:05:18;;;;;;;9.88;3.72;;;;;;;;;;6150011;23;20672;-88
2024/03/10 17:08:25;;;;;;;11.43;4.40;;;;;;;;;;6153019;23;20208;-89
2024/03/10 17:11:32;;;;;;;7.38;3.50;;;;;;;;;;6151159;23;20172;-88
2024/03/10 17:14:37;;;;;;;10.68;3.80;;;;;;;;;;6149505;23;20164;-89
2024/03/10 17:17:43;;;;;;;8.02;3.30;;;;;;;;;;6150219;23;20176;-91
2024/03/10 17:20:51;;;;;;;8.10;2.75;;;;;;;;;;6150309;23;20289;-91
2024/03/10 17:23:57;;;;;;;6.93;2.10;;;;;;;;;;6147654;23;20292;-90
2024/03/10 17:27:03;;;;;;;8.35;1.80;;;;;;;;;;6147472;23;20696;-90
2024/03/10 17:30:08;;;;;;;3.50;1.65;;;;;;;;;;6146471;23;20249;-91
2024/03/10 17:33:15;;;;;;;5.18;1.80;;;;;;;;;;6150160;23;20197;-89
2024/03/10 17:36:21;;;;;;;4.10;1.70;;;;;;;;;;6151076;23;20172;-88
2024/03/10 17:39:31;;;;;;;2.90;1.33;;;;;;;;;;6150530;23;20177;-89
2024/03/10 17:42:36;;;;;;;3.70;1.50;;;;;;;;;;6151741;23;20174;-91
2024/03/10 17:45:41;;;;;;;4.60;1.90;;;;;;;;;;6149530;23;20149;-91
2024/03/10 17:48:48;;;;;;;3.40;1.63;;;;;;;;;;6150700;23;20255;-91
2024/03/10 17:51:55;;;;;;;5.90;2.28;;;;;;;;;;6152154;23;20244;-90
2024/03/10 17:55:05;;;;;;;13.13;5.93;;;;;;;;;;6149360;23;20675;-89
2024/03/10 17:58:11;;;;;;;4.55;2.00;;;;;;;;;;6151464;23;20264;-90
2024/03/10 18:01:18;;;;;;;7.22;1.60;;;;;;;;;;6152013;23;20197;-89
2024/03/10 18:04:23;;;;;;;3.38;1.50;;;;;;;;;;6153559;23;20172;-90
2024/03/10 18:07:29;;;;;;;2.83;1.55;;;;;;;;;;6153327;23;20180;-90
2024/03/10 18:10:43;;;;;;;5.15;1.42;;;;;;;;;;6151738;23;20173;-90
2024/03/10 18:13:49;;;;;;;3.55;1.55;;;;;;;;;;6153523;23;20176;-88
2024/03/10 18:16:54;;;;;;;4.15;2.00;;;;;;;;;;6152417;23;20168;-88
2024/03/10 18:19:59;;;;;;;2.08;1.33;;;;;;;;;;6152235;23;20171;-88
2024/03/10 18:23:07;;;;;;;2.63;1.23;;;;;;;;;;6151506;23;20176;-88
2024/03/10 18:26:14;;;;;;;3.38;1.10;;;;;;;;;;6149438;23;20391;-89
2024/03/10 18:29:20;;;;;;;8.80;4.60;;;;;;;;;;6152315;23;20160;-89
2024/03/10 18:32:26;;;;;;;2.58;1.20;;;;;;;;;;6151820;23;20169;-90
2024/03/10 18:35:31;;;;;;;2.58;0.95;;;;;;;;;;6150666;23;20500;-90
2024/03/10 18:38:37;;;;;;;2.15;1.20;;;;;;;;;;6154591;23;20180;-90
2024/03/10 18:41:44;;;;;;;2.15;1.17;;;;;;;;;;6151332;23;20252;-90
2024/03/10 18:44:49;;;;;;;1.13;0.93;;;;;;;;;;6152461;23;20169;-90
2024/03/10 18:47:55;;;;;;;6.53;1.50;;;;;;;;;;6154799;23;20174;-89
2024/03/10 18:51:00;;;;;;;2.85;1.20;;;;;;;;;;6153489;23;20169;-89
2024/03/10 18:54:08;;;;;;;4.05;2.10;;;;;;;;;;6153485;23;20169;-89
2024/03/10 18:57:18;;;;;;;3.50;1.40;;;;;;;;;;6150999;23;20169;-90
2024/03/10 19:00:24;;;;;;;5.38;1.45;;;;;;;;;;6151773;23;20238;-90
2024/03/10 19:03:31;;;;;;;2.42;1.35;;;;;;;;;;6151856;23;20636;-89